createdAt,value
2017-03-27T00:00:21.175Z,68.22
2017-03-27T00:01:26.541Z,69.88
2017-03-27T00:02:30.912Z,71.53
2017-03-27T00:03:35.590Z,73.85
2017-03-27T00:04:40.240Z,71.89
2017-03-27T00:05:44.809Z,71.72
2017-03-27T00:06:49.200Z,72.44
2017-03-27T00:07:58.867Z,73.64
2017-03-27T00:09:03.044Z,72.03
2017-03-27T00:10:07.559Z,73.24
2017-03-27T00:11:12.828Z,71.85
2017-03-27T00:12:17.138Z,70.47
2017-03-27T00:13:21.695Z,67.77
2017-03-27T00:14:31.509Z,70.21
2017-03-27T00:15:35.665Z,73.10
2017-03-27T00:16:40.788Z,75.09
2017-03-27T00:17:44.348Z,73.75
2017-03-27T00:18:48.638Z,75.04
2017-03-27T00:19:54.104Z,77.03
2017-03-27T00:20:58.588Z,75.21
2017-03-27T00:22:02.450Z,73.36
2017-03-27T00:23:10.951Z,71.84
2017-03-27T00:24:15.902Z,70.22
2017-03-27T00:25:20.310Z,72.24
2017-03-27T00:26:23.525Z,73.22
2017-03-27T00:27:28.965Z,73.29
2017-03-27T00:28:34.383Z,73.98
2017-03-27T00:29:38.647Z,74.12
2017-03-27T00:30:43.292Z,74.58
2017-03-27T00:31:47.626Z,73.37
2017-03-27T00:32:51.509Z,71.63
2017-03-27T00:33:55.500Z,70.20
2017-03-27T00:34:59.394Z,68.85
2017-03-27T00:36:04.640Z,71.41
2017-03-27T00:37:09.009Z,74.72
2017-03-27T00:38:13.452Z,76.34
2017-03-27T00:39:17.925Z,77.36
2017-03-27T00:40:22.440Z,76.33
2017-03-27T00:41:26.021Z,75.17
2017-03-27T00:42:30.135Z,75.16
2017-03-27T00:43:34.085Z,77.90
2017-03-27T00:44:38.712Z,77.20
2017-03-27T00:45:43.608Z,78.28
2017-03-27T00:46:48.365Z,76.43
2017-03-27T00:47:52.576Z,77.54
2017-03-27T00:48:57.096Z,77.63
2017-03-27T00:50:01.516Z,75.12
2017-03-27T00:51:05.527Z,73.23
2017-03-27T00:52:10.230Z,74.78
2017-03-27T00:53:15.737Z,75.69
2017-03-27T00:54:19.964Z,76.64
2017-03-27T00:55:24.512Z,75.25
2017-03-27T00:56:29.306Z,72.19
2017-03-27T00:57:34.349Z,72.14
2017-03-27T00:58:38.781Z,70.65
2017-03-27T00:59:42.960Z,70.97
2017-03-27T01:00:47.419Z,70.88
2017-03-27T01:01:51.366Z,71.00
2017-03-27T01:02:54.024Z,68.73
2017-03-27T01:03:56.452Z,70.02
2017-03-27T01:05:00.816Z,73.51
2017-03-27T01:06:05.373Z,74.72
2017-03-27T01:07:09.743Z,73.17
2017-03-27T01:08:14.517Z,73.91
2017-03-27T01:09:19.165Z,73.67
2017-03-27T01:10:23.652Z,74.10
2017-03-27T01:11:28.226Z,75.08
2017-03-27T01:12:32.577Z,75.54
2017-03-27T01:13:37.009Z,76.64
2017-03-27T01:14:41.677Z,77.43
2017-03-27T01:15:45.861Z,77.90
2017-03-27T01:16:49.478Z,75.80
2017-03-27T01:17:53.878Z,77.35
2017-03-27T01:18:58.248Z,74.98
2017-03-27T01:20:02.716Z,73.79
2017-03-27T01:21:07.227Z,73.33
2017-03-27T01:22:11.793Z,71.61
2017-03-27T01:23:16.424Z,69.38
2017-03-27T01:24:21.793Z,72.57
2017-03-27T01:25:25.984Z,70.89
2017-03-27T01:26:30.274Z,68.45
2017-03-27T01:27:34.816Z,66.61
2017-03-27T01:28:39.261Z,70.62
2017-03-27T01:29:43.641Z,72.14
2017-03-27T01:30:48.154Z,75.62
2017-03-27T01:31:52.572Z,72.46
2017-03-27T01:32:56.951Z,71.98
2017-03-27T01:34:01.454Z,69.40
2017-03-27T01:35:05.860Z,70.42
2017-03-27T01:36:11.233Z,71.90
2017-03-27T01:37:15.644Z,70.10
2017-03-27T01:38:20.215Z,73.64
2017-03-27T01:39:24.533Z,73.00
2017-03-27T01:40:28.887Z,72.58
2017-03-27T01:41:33.278Z,74.63
2017-03-27T01:42:37.753Z,73.59
2017-03-27T01:43:47.408Z,75.74
2017-03-27T01:44:51.586Z,78.65
2017-03-27T01:45:55.853Z,77.50
2017-03-27T01:46:59.069Z,76.21
2017-03-27T01:48:03.043Z,78.01
2017-03-27T01:49:08.346Z,79.95
2017-03-27T01:50:13.497Z,76.91
2017-03-27T01:51:17.280Z,77.19
2017-03-27T01:52:22.621Z,79.30
2017-03-27T01:53:26.998Z,76.32
2017-03-27T01:54:31.293Z,74.51
2017-03-27T01:55:36.392Z,75.12
2017-03-27T01:56:41.481Z,77.40
2017-03-27T01:57:45.978Z,76.27
2017-03-27T01:58:50.296Z,74.72
2017-03-27T01:59:54.817Z,76.33
2017-03-27T02:00:59.042Z,78.95
2017-03-27T02:02:03.704Z,78.87
2017-03-27T02:03:08.229Z,78.34
2017-03-27T02:04:12.686Z,77.13
2017-03-27T02:05:17.048Z,75.80
2017-03-27T02:06:21.602Z,70.50
2017-03-27T02:07:25.961Z,73.15
2017-03-27T02:08:30.321Z,71.71
2017-03-27T02:09:35.487Z,73.40
2017-03-27T02:10:40.493Z,76.45
2017-03-27T02:11:44.769Z,74.49
2017-03-27T02:12:52.266Z,69.71
2017-03-27T02:13:56.740Z,74.87
2017-03-27T02:15:01.184Z,72.64
2017-03-27T02:16:05.683Z,68.66
2017-03-27T02:17:16.308Z,72.81
2017-03-27T02:18:20.517Z,70.99
2017-03-27T02:19:24.951Z,73.20
2017-03-27T02:20:29.432Z,70.03
2017-03-27T02:21:33.900Z,73.60
2017-03-27T02:22:38.397Z,74.67
2017-03-27T02:23:43.098Z,72.98
2017-03-27T02:24:47.357Z,71.24
2017-03-27T02:25:51.895Z,72.84
2017-03-27T02:26:57.269Z,70.99
2017-03-27T02:28:01.871Z,74.60
2017-03-27T02:29:06.381Z,74.60
2017-03-27T02:30:11.085Z,74.99
2017-03-27T02:31:15.543Z,76.61
2017-03-27T02:32:20.554Z,75.67
2017-03-27T02:33:25.050Z,77.13
2017-03-27T02:34:29.396Z,77.26
2017-03-27T02:35:33.969Z,73.96
2017-03-27T02:36:38.325Z,77.46
2017-03-27T02:37:43.015Z,80.95
2017-03-27T02:38:47.293Z,77.03
2017-03-27T02:39:50.542Z,77.26
2017-03-27T02:40:54.929Z,74.84
2017-03-27T02:42:00.277Z,77.54
2017-03-27T02:43:04.042Z,73.55
2017-03-27T02:44:06.985Z,70.95
2017-03-27T02:45:12.302Z,71.64
2017-03-27T02:46:14.975Z,68.60
2017-03-27T02:47:19.477Z,73.59
2017-03-27T02:48:23.864Z,70.85
2017-03-27T02:49:27.729Z,72.56
2017-03-27T02:50:32.958Z,72.09
2017-03-27T02:51:37.347Z,75.02
2017-03-27T02:52:41.869Z,75.62
2017-03-27T02:53:46.230Z,77.45
2017-03-27T02:54:50.729Z,76.51
2017-03-27T02:55:55.707Z,75.03
2017-03-27T02:56:59.653Z,73.76
2017-03-27T02:58:04.053Z,74.56
2017-03-27T02:59:08.680Z,74.13
2017-03-27T03:00:13.897Z,76.34
2017-03-27T03:01:17.645Z,74.95
2017-03-27T03:02:22.690Z,73.94
2017-03-27T03:03:27.143Z,75.63
2017-03-27T03:04:31.565Z,75.03
2017-03-27T03:05:36.177Z,76.58
2017-03-27T03:06:41.536Z,76.06
2017-03-27T03:07:46.417Z,77.08
2017-03-27T03:08:50.664Z,76.73
2017-03-27T03:09:55.253Z,76.68
2017-03-27T03:10:59.595Z,79.87
2017-03-27T03:12:03.890Z,76.03
2017-03-27T03:13:08.558Z,77.45
2017-03-27T03:14:12.489Z,79.52
2017-03-27T03:15:17.448Z,77.79
2017-03-27T03:16:22.016Z,78.96
2017-03-27T03:17:26.295Z,73.59
2017-03-27T03:18:30.801Z,74.26
2017-03-27T03:19:35.336Z,74.22
2017-03-27T03:20:39.942Z,72.16
2017-03-27T03:21:44.341Z,71.69
2017-03-27T03:22:48.859Z,72.95
2017-03-27T03:23:53.300Z,72.63
2017-03-27T03:24:57.761Z,73.38
2017-03-27T03:26:02.312Z,76.04
2017-03-27T03:27:06.942Z,77.10
2017-03-27T03:28:11.952Z,73.80
2017-03-27T03:29:16.459Z,77.12
2017-03-27T03:30:21.845Z,76.22
2017-03-27T03:31:26.378Z,76.98
2017-03-27T03:32:35.931Z,79.11
2017-03-27T03:33:40.665Z,77.61
2017-03-27T03:34:45.521Z,76.40
2017-03-27T03:35:50.036Z,76.30
2017-03-27T03:36:54.451Z,75.91
2017-03-27T03:37:59.506Z,78.02
2017-03-27T03:39:04.340Z,76.26
2017-03-27T03:40:08.890Z,75.01
2017-03-27T03:41:13.395Z,76.13
2017-03-27T03:42:18.008Z,73.69
2017-03-27T03:43:21.626Z,76.32
2017-03-27T03:44:25.717Z,74.78
2017-03-27T03:45:29.480Z,72.72
2017-03-27T03:46:40.833Z,73.54
2017-03-27T03:47:51.232Z,71.41
2017-03-27T03:48:56.245Z,72.77
2017-03-27T03:50:00.712Z,74.02
2017-03-27T03:51:05.111Z,74.09
2017-03-27T03:52:09.436Z,73.30
2017-03-27T03:53:14.154Z,76.61
2017-03-27T03:54:18.492Z,76.06
2017-03-27T03:55:23.040Z,74.50
2017-03-27T03:56:26.612Z,76.48
2017-03-27T03:57:29.997Z,71.62
2017-03-27T03:58:34.176Z,74.99
2017-03-27T03:59:38.682Z,75.36
2017-03-27T04:00:43.560Z,75.80
2017-03-27T04:01:48.448Z,76.25
2017-03-27T04:02:53.037Z,75.49
2017-03-27T04:03:57.873Z,75.94
2017-03-27T04:05:01.440Z,73.08
2017-03-27T04:06:05.524Z,77.35
2017-03-27T04:07:09.359Z,76.60
2017-03-27T04:08:12.272Z,76.85
2017-03-27T04:09:16.959Z,77.04
2017-03-27T04:10:21.552Z,76.82
2017-03-27T04:11:26.061Z,74.14
2017-03-27T04:12:36.601Z,78.96
2017-03-27T04:13:40.740Z,76.40
2017-03-27T04:14:45.036Z,76.32
2017-03-27T04:15:48.820Z,76.69
2017-03-27T04:16:52.921Z,77.04
2017-03-27T04:17:57.233Z,76.16
2017-03-27T04:19:02.725Z,72.45
2017-03-27T04:20:07.667Z,73.92
2017-03-27T04:21:11.892Z,76.29
2017-03-27T04:22:16.537Z,76.53
2017-03-27T04:23:21.158Z,74.88
2017-03-27T04:24:25.391Z,72.63
2017-03-27T04:25:29.774Z,72.80
2017-03-27T04:26:34.260Z,73.37
2017-03-27T04:27:39.710Z,73.28
2017-03-27T04:28:44.072Z,75.07
2017-03-27T04:29:48.708Z,77.45
2017-03-27T04:30:53.237Z,76.16
2017-03-27T04:31:57.333Z,73.35
2017-03-27T04:33:02.114Z,74.92
2017-03-27T04:34:07.209Z,75.95
2017-03-27T04:35:11.692Z,72.45
2017-03-27T04:36:16.083Z,72.19
2017-03-27T04:37:20.478Z,73.21
2017-03-27T04:38:24.919Z,75.38
2017-03-27T04:39:29.433Z,76.96
2017-03-27T04:40:34.114Z,75.63
2017-03-27T04:41:38.705Z,75.35
2017-03-27T04:42:43.310Z,74.62
2017-03-27T04:43:47.936Z,73.69
2017-03-27T04:44:52.107Z,72.98
2017-03-27T04:45:56.629Z,75.34
2017-03-27T04:47:01.055Z,76.96
2017-03-27T04:48:05.496Z,78.78
2017-03-27T04:49:09.898Z,76.64
2017-03-27T04:50:14.242Z,78.43
2017-03-27T04:51:28.581Z,77.58
2017-03-27T04:52:40.424Z,77.72
2017-03-27T04:53:44.590Z,74.91
2017-03-27T04:54:49.507Z,75.17
2017-03-27T04:55:53.517Z,79.78
2017-03-27T04:56:58.989Z,81.09
2017-03-27T04:58:03.369Z,80.75
2017-03-27T04:59:07.776Z,77.47
2017-03-27T05:00:12.177Z,78.68
2017-03-27T05:01:16.583Z,77.73
2017-03-27T05:02:21.077Z,77.64
2017-03-27T05:03:25.465Z,76.01
2017-03-27T05:04:29.907Z,76.46
2017-03-27T05:05:34.141Z,75.92
2017-03-27T05:06:38.507Z,78.31
2017-03-27T05:07:42.886Z,75.37
2017-03-27T05:08:47.261Z,77.17
2017-03-27T05:09:51.671Z,75.32
2017-03-27T05:10:56.055Z,74.56
2017-03-27T05:12:00.535Z,77.50
2017-03-27T05:13:04.976Z,74.96
2017-03-27T05:14:09.398Z,73.59
2017-03-27T05:15:13.703Z,73.55
2017-03-27T05:16:18.125Z,76.12
2017-03-27T05:17:22.509Z,73.56
2017-03-27T05:18:26.986Z,75.33
2017-03-27T05:19:31.378Z,76.66
2017-03-27T05:20:36.012Z,77.14
2017-03-27T05:21:46.494Z,76.37
2017-03-27T05:22:51.309Z,72.51
2017-03-27T05:23:55.758Z,72.58
2017-03-27T05:25:00.329Z,73.30
2017-03-27T05:26:04.970Z,75.10
2017-03-27T05:27:09.337Z,75.46
2017-03-27T05:28:13.739Z,77.07
2017-03-27T05:29:18.234Z,74.73
2017-03-27T05:30:22.815Z,73.00
2017-03-27T05:31:28.532Z,72.37
2017-03-27T05:32:33.653Z,75.43
2017-03-27T05:33:37.330Z,76.43
2017-03-27T05:34:35.301Z,78.07
2017-03-27T05:35:39.505Z,75.92
2017-03-27T05:36:38.978Z,75.87
2017-03-27T05:37:36.846Z,79.69
2017-03-27T05:38:41.430Z,80.07
2017-03-27T05:39:45.274Z,80.94
2017-03-27T05:40:47.820Z,81.68
2017-03-27T05:41:51.947Z,82.23
2017-03-27T05:42:49.944Z,81.10
2017-03-27T05:43:54.614Z,80.60
2017-03-27T05:44:52.482Z,79.18
2017-03-27T05:45:56.964Z,79.44
2017-03-27T05:47:01.318Z,77.82
2017-03-27T05:48:06.256Z,76.80
2017-03-27T05:49:04.141Z,79.75
2017-03-27T05:50:02.064Z,78.13
2017-03-27T05:51:07.039Z,79.31
2017-03-27T05:52:11.626Z,76.80
2017-03-27T05:53:15.887Z,77.59
2017-03-27T05:54:20.742Z,78.74
2017-03-27T05:55:25.673Z,76.62
2017-03-27T05:56:30.285Z,77.52
2017-03-27T05:57:34.817Z,77.41
2017-03-27T05:58:39.280Z,78.80
2017-03-27T05:59:44.122Z,76.65
2017-03-27T06:00:49.028Z,74.13
2017-03-27T06:01:53.399Z,74.81
2017-03-27T06:02:57.865Z,73.17
2017-03-27T06:04:02.474Z,77.23
2017-03-27T06:05:07.028Z,77.66
2017-03-27T06:06:11.896Z,75.20
2017-03-27T06:07:16.877Z,78.44
2017-03-27T06:08:21.513Z,77.70
2017-03-27T06:09:25.786Z,76.58
2017-03-27T06:10:30.265Z,74.92
2017-03-27T06:11:34.987Z,73.04
2017-03-27T06:12:40.009Z,75.12
2017-03-27T06:13:44.415Z,75.24
2017-03-27T06:14:48.903Z,73.38
2017-03-27T06:15:53.318Z,72.09
2017-03-27T06:16:59.649Z,71.23
2017-03-27T06:18:04.245Z,71.49
2017-03-27T06:19:08.604Z,69.98
2017-03-27T06:20:13.065Z,69.95
2017-03-27T06:21:17.600Z,72.04
2017-03-27T06:22:21.464Z,75.14
2017-03-27T06:23:24.172Z,73.42
2017-03-27T06:24:28.988Z,75.96
2017-03-27T06:25:34.816Z,76.85
2017-03-27T06:26:39.820Z,73.90
2017-03-27T06:27:44.095Z,75.11
2017-03-27T06:28:51.655Z,73.61
2017-03-27T06:29:55.832Z,77.95
2017-03-27T06:31:00.365Z,76.34
2017-03-27T06:32:04.671Z,73.88
2017-03-27T06:33:09.029Z,77.67
2017-03-27T06:34:13.425Z,76.67
2017-03-27T06:35:17.944Z,77.98
2017-03-27T06:36:22.474Z,78.32
2017-03-27T06:37:26.869Z,71.69
2017-03-27T06:38:31.287Z,71.25
2017-03-27T06:39:36.792Z,71.59
2017-03-27T06:40:41.149Z,71.09
2017-03-27T06:41:48.661Z,72.60
2017-03-27T06:42:52.528Z,75.90
2017-03-27T06:43:55.649Z,76.25
2017-03-27T06:44:58.989Z,78.48
2017-03-27T06:46:03.552Z,77.19
2017-03-27T06:47:08.161Z,76.42
2017-03-27T06:48:12.672Z,75.48
2017-03-27T06:49:18.225Z,75.52
2017-03-27T06:50:21.688Z,75.78
2017-03-27T06:51:31.224Z,78.11
2017-03-27T06:52:35.700Z,77.65
2017-03-27T06:53:40.765Z,77.24
2017-03-27T06:54:44.811Z,77.22
2017-03-27T06:55:42.690Z,76.93
2017-03-27T06:56:47.112Z,74.72
2017-03-27T06:57:51.552Z,74.17
2017-03-27T06:58:58.925Z,74.49
2017-03-27T07:00:03.492Z,76.33
2017-03-27T07:01:08.088Z,76.08
2017-03-27T07:02:12.676Z,74.28
2017-03-27T07:03:17.732Z,76.42
2017-03-27T07:04:22.096Z,72.83
2017-03-27T07:05:26.803Z,74.59
2017-03-27T07:06:31.136Z,75.70
2017-03-27T07:07:35.664Z,74.32
2017-03-27T07:08:40.206Z,73.11
2017-03-27T07:09:44.411Z,74.22
2017-03-27T07:10:48.827Z,74.50
2017-03-27T07:11:53.223Z,72.57
2017-03-27T07:12:57.709Z,75.06
2017-03-27T07:14:09.095Z,74.25
2017-03-27T07:15:17.689Z,73.26
2017-03-27T07:16:22.104Z,71.70
2017-03-27T07:17:27.419Z,71.92
2017-03-27T07:18:32.900Z,70.88
2017-03-27T07:19:37.691Z,70.66
2017-03-27T07:20:42.095Z,71.09
2017-03-27T07:21:40.449Z,69.98
2017-03-27T07:22:38.462Z,67.81
2017-03-27T07:23:43.425Z,66.04
2017-03-27T07:24:47.592Z,64.25
2017-03-27T07:25:53.699Z,63.78
2017-03-27T07:26:58.368Z,63.12
2017-03-27T07:28:03.329Z,57.47
2017-03-27T07:29:08.076Z,61.36
2017-03-27T07:30:11.876Z,58.02
2017-03-27T07:31:14.854Z,56.41
2017-03-27T07:32:18.697Z,54.44
2017-03-27T07:33:23.676Z,55.05
2017-03-27T07:34:27.617Z,54.39
2017-03-27T07:35:32.712Z,53.87
2017-03-27T07:36:37.063Z,51.76
2017-03-27T07:37:41.501Z,53.73
2017-03-27T07:38:45.698Z,55.84
2017-03-27T07:39:50.461Z,55.79
2017-03-27T07:40:54.871Z,49.87
2017-03-27T07:41:58.361Z,48.86
2017-03-27T07:43:02.620Z,49.88
2017-03-27T07:44:06.546Z,49.99
2017-03-27T07:45:09.826Z,52.22
2017-03-27T07:46:13.475Z,53.98
2017-03-27T07:47:17.736Z,49.24
2017-03-27T07:48:22.309Z,50.47
2017-03-27T07:49:27.293Z,50.06
2017-03-27T07:50:33.059Z,50.08
2017-03-27T07:51:37.184Z,47.68
2017-03-27T07:52:40.896Z,47.05
2017-03-27T07:53:46.005Z,49.64
2017-03-27T07:54:51.573Z,48.43
2017-03-27T07:55:55.227Z,49.83
2017-03-27T07:56:59.344Z,48.72
2017-03-27T07:58:02.855Z,49.29
2017-03-27T07:59:06.904Z,50.63
2017-03-27T08:00:11.503Z,48.90
2017-03-27T08:01:15.956Z,47.23
2017-03-27T08:02:22.705Z,48.09
2017-03-27T08:03:27.081Z,49.17
2017-03-27T08:04:31.719Z,50.01
2017-03-27T08:05:36.096Z,51.92
2017-03-27T08:06:40.075Z,50.68
2017-03-27T08:07:44.834Z,49.21
2017-03-27T08:08:48.764Z,47.10
2017-03-27T08:09:53.325Z,47.65
2017-03-27T08:10:56.988Z,47.87
2017-03-27T08:12:01.060Z,47.07
2017-03-27T08:13:05.384Z,49.11
2017-03-27T08:14:08.065Z,46.03
2017-03-27T08:15:12.492Z,50.40
2017-03-27T08:16:16.246Z,45.58
2017-03-27T08:17:19.852Z,47.17
2017-03-27T08:18:23.416Z,46.27
2017-03-27T08:19:26.792Z,49.13
2017-03-27T08:20:30.783Z,46.72
2017-03-27T08:21:33.247Z,47.41
2017-03-27T08:22:37.256Z,44.81
2017-03-27T08:23:41.762Z,46.52
2017-03-27T08:24:45.848Z,47.49
2017-03-27T08:25:50.233Z,44.78
2017-03-27T08:26:54.018Z,47.18
2017-03-27T08:27:57.389Z,42.74
2017-03-27T08:29:00.800Z,42.39
2017-03-27T08:30:04.329Z,42.59
2017-03-27T08:31:07.989Z,42.74
2017-03-27T08:32:11.312Z,42.43
2017-03-27T08:33:14.838Z,41.30
2017-03-27T08:34:18.292Z,39.12
2017-03-27T08:35:21.575Z,40.40
2017-03-27T08:36:25.027Z,39.72
2017-03-27T08:37:29.053Z,39.75
2017-03-27T08:38:31.657Z,39.76
2017-03-27T08:39:34.347Z,39.60
2017-03-27T08:40:38.232Z,37.47
2017-03-27T08:41:42.775Z,37.65
2017-03-27T08:42:46.460Z,39.84
2017-03-27T08:43:49.844Z,39.41
2017-03-27T08:44:58.085Z,36.29
2017-03-27T08:46:03.526Z,37.03
2017-03-27T08:47:06.921Z,36.82
2017-03-27T08:48:10.305Z,38.51
2017-03-27T08:49:13.663Z,37.67
2017-03-27T08:50:17.617Z,37.34
2017-03-27T08:51:20.763Z,37.09
2017-03-27T08:52:24.240Z,38.32
2017-03-27T08:53:27.629Z,36.30
2017-03-27T08:54:31.908Z,35.35
2017-03-27T08:55:36.285Z,37.38
2017-03-27T08:56:40.899Z,35.39
2017-03-27T08:57:45.073Z,34.44
2017-03-27T08:58:49.410Z,35.18
2017-03-27T08:59:53.201Z,35.59
2017-03-27T09:00:57.166Z,36.87
2017-03-27T09:02:01.545Z,36.81
2017-03-27T09:03:04.046Z,36.58
2017-03-27T09:04:08.244Z,36.04
2017-03-27T09:05:12.261Z,35.16
2017-03-27T09:06:14.687Z,36.59
2017-03-27T09:07:18.473Z,38.20
2017-03-27T09:08:21.744Z,38.29
2017-03-27T09:09:26.929Z,38.55
2017-03-27T09:10:30.657Z,37.65
2017-03-27T09:11:34.571Z,38.00
2017-03-27T09:12:38.384Z,38.73
2017-03-27T09:13:43.583Z,39.31
2017-03-27T09:14:47.408Z,36.52
2017-03-27T09:15:51.833Z,38.50
2017-03-27T09:16:55.991Z,38.48
2017-03-27T09:18:00.378Z,37.85
2017-03-27T09:19:04.298Z,38.10
2017-03-27T09:20:08.255Z,36.50
2017-03-27T09:21:12.039Z,36.07
2017-03-27T09:22:15.968Z,35.02
2017-03-27T09:23:18.835Z,34.20
2017-03-27T09:24:23.212Z,33.09
2017-03-27T09:25:28.088Z,34.69
2017-03-27T09:26:32.271Z,33.28
2017-03-27T09:27:36.809Z,31.45
2017-03-27T09:28:41.310Z,31.24
2017-03-27T09:29:45.862Z,31.86
2017-03-27T09:30:50.476Z,31.54
2017-03-27T09:31:55.069Z,31.79
2017-03-27T09:32:58.738Z,32.74
2017-03-27T09:34:02.893Z,32.14
2017-03-27T09:35:01.251Z,32.57
2017-03-27T09:36:05.387Z,31.51
2017-03-27T09:37:03.213Z,31.38
2017-03-27T09:38:01.120Z,31.59
2017-03-27T09:39:06.521Z,32.92
2017-03-27T09:40:10.132Z,30.71
2017-03-27T09:41:15.132Z,31.57
2017-03-27T09:42:18.003Z,31.65
2017-03-27T09:43:22.810Z,31.02
2017-03-27T09:44:28.187Z,31.23
2017-03-27T09:45:32.106Z,30.25
2017-03-27T09:46:36.683Z,31.21
2017-03-27T09:47:40.857Z,32.72
2017-03-27T09:48:45.163Z,32.22
2017-03-27T09:49:49.228Z,32.82
2017-03-27T09:50:52.905Z,32.04
2017-03-27T09:51:56.351Z,32.69
2017-03-27T09:53:00.229Z,31.88
2017-03-27T09:54:04.434Z,31.10
2017-03-27T09:55:09.832Z,31.58
2017-03-27T09:56:15.316Z,31.68
2017-03-27T09:57:18.777Z,31.36
2017-03-27T09:58:23.874Z,29.83
2017-03-27T09:59:28.282Z,31.01
2017-03-27T10:00:33.631Z,29.81
2017-03-27T10:01:38.552Z,30.71
2017-03-27T10:02:41.789Z,31.26
2017-03-27T10:03:46.234Z,31.18
2017-03-27T10:04:51.584Z,30.55
2017-03-27T10:05:56.030Z,31.02
2017-03-27T10:06:59.856Z,31.49
2017-03-27T10:08:04.830Z,30.86
2017-03-27T10:09:10.473Z,31.76
2017-03-27T10:10:16.507Z,32.81
2017-03-27T10:11:21.203Z,31.76
2017-03-27T10:12:26.599Z,30.38
2017-03-27T10:13:31.278Z,29.86
2017-03-27T10:14:35.728Z,31.16
2017-03-27T10:15:39.048Z,31.33
2017-03-27T10:16:43.612Z,28.96
2017-03-27T10:17:48.431Z,28.93
2017-03-27T10:18:52.344Z,29.90
2017-03-27T10:19:56.798Z,30.74
2017-03-27T10:21:01.443Z,28.36
2017-03-27T10:22:06.008Z,29.75
2017-03-27T10:23:16.471Z,28.88
2017-03-27T10:24:20.460Z,27.94
2017-03-27T10:25:25.392Z,29.27
2017-03-27T10:26:29.855Z,28.21
2017-03-27T10:27:34.685Z,29.72
2017-03-27T10:28:39.665Z,27.56
2017-03-27T10:29:44.645Z,28.11
2017-03-27T10:30:49.633Z,28.15
2017-03-27T10:31:54.008Z,28.94
2017-03-27T10:32:58.666Z,30.16
2017-03-27T10:34:03.175Z,29.44
2017-03-27T10:35:07.731Z,29.95
2017-03-27T10:36:12.000Z,30.78
2017-03-27T10:37:16.543Z,30.09
2017-03-27T10:38:21.281Z,28.70
2017-03-27T10:39:26.347Z,29.80
2017-03-27T10:40:30.770Z,28.09
2017-03-27T10:41:35.204Z,27.50
2017-03-27T10:42:39.913Z,29.53
2017-03-27T10:43:44.557Z,28.45
2017-03-27T10:44:49.548Z,28.04
2017-03-27T10:45:54.044Z,27.53
2017-03-27T10:46:58.828Z,28.00
2017-03-27T10:48:03.265Z,26.41
2017-03-27T10:49:07.600Z,28.20
2017-03-27T10:50:12.008Z,27.11
2017-03-27T10:51:16.674Z,27.98
2017-03-27T10:52:21.288Z,26.57
2017-03-27T10:53:26.267Z,27.28
2017-03-27T10:54:31.660Z,27.32
2017-03-27T10:55:36.372Z,27.47
2017-03-27T10:56:41.934Z,27.00
2017-03-27T10:57:46.759Z,28.69
2017-03-27T10:58:54.419Z,26.63
2017-03-27T10:59:58.822Z,27.50
2017-03-27T11:01:03.886Z,26.77
2017-03-27T11:02:12.447Z,25.55
2017-03-27T11:03:16.589Z,26.45
2017-03-27T11:04:21.213Z,26.62
2017-03-27T11:05:25.474Z,25.91
2017-03-27T11:06:35.829Z,25.73
2017-03-27T11:07:39.968Z,27.46
2017-03-27T11:08:44.585Z,27.02
2017-03-27T11:09:49.153Z,26.16
2017-03-27T11:10:53.749Z,27.11
2017-03-27T11:11:59.040Z,26.49
2017-03-27T11:13:03.065Z,25.54
2017-03-27T11:15:40.496Z,26.22
2017-03-27T11:16:45.333Z,25.54
2017-03-27T11:17:54.909Z,26.36
2017-03-27T11:18:59.394Z,25.33
2017-03-27T11:20:03.882Z,24.50
2017-03-27T11:21:08.823Z,24.16
2017-03-27T11:22:12.817Z,24.85
2017-03-27T11:23:17.693Z,25.39
2017-03-27T11:24:20.295Z,25.59
2017-03-27T11:25:25.100Z,24.83
2017-03-27T11:26:29.631Z,24.53
2017-03-27T11:27:33.927Z,24.58
2017-03-27T11:28:38.184Z,26.22
2017-03-27T11:29:41.980Z,24.77
2017-03-27T11:30:45.388Z,25.69
2017-03-27T11:31:50.998Z,25.34
2017-03-27T11:32:54.800Z,25.12
2017-03-27T11:33:58.853Z,25.85
2017-03-27T11:35:02.976Z,24.81
2017-03-27T11:36:06.608Z,25.47
2017-03-27T11:37:16.655Z,25.06
2017-03-27T11:38:19.952Z,24.67
2017-03-27T11:39:24.242Z,26.90
2017-03-27T11:40:27.890Z,25.19
2017-03-27T11:41:32.192Z,23.79
2017-03-27T11:42:36.328Z,25.03
2017-03-27T11:43:40.660Z,25.11
2017-03-27T11:44:46.180Z,23.60
2017-03-27T11:45:50.655Z,23.31
2017-03-27T11:46:54.734Z,23.89
2017-03-27T11:47:59.335Z,23.66
2017-03-27T11:49:03.913Z,24.90
2017-03-27T11:50:12.581Z,23.75
2017-03-27T11:51:16.688Z,23.88
2017-03-27T11:52:26.520Z,23.18
2017-03-27T11:53:31.003Z,24.24
2017-03-27T11:54:36.126Z,23.88
2017-03-27T11:55:40.504Z,22.99
2017-03-27T11:56:45.060Z,22.91
2017-03-27T11:57:49.601Z,21.76
2017-03-27T11:59:06.755Z,22.33
2017-03-27T12:00:11.656Z,21.86
2017-03-27T12:01:16.147Z,20.63
2017-03-27T12:02:20.573Z,21.90
2017-03-27T12:03:24.834Z,23.97
2017-03-27T12:04:29.375Z,22.67
2017-03-27T12:05:33.968Z,23.04
2017-03-27T12:06:39.844Z,23.22
2017-03-27T12:07:44.572Z,23.89
2017-03-27T12:08:49.150Z,23.47
2017-03-27T12:09:53.564Z,22.48
2017-03-27T12:10:57.945Z,21.97
2017-03-27T12:12:02.293Z,23.41
2017-03-27T12:13:06.662Z,24.12
2017-03-27T12:14:14.120Z,22.99
2017-03-27T12:15:18.389Z,22.85
2017-03-27T12:16:22.928Z,23.34
2017-03-27T12:17:27.490Z,22.10
2017-03-27T12:18:34.800Z,23.46
2017-03-27T12:19:41.883Z,25.05
2017-03-27T12:20:52.200Z,23.74
2017-03-27T12:21:57.280Z,23.28
2017-03-27T12:23:02.751Z,23.82
2017-03-27T12:24:07.447Z,22.53
2017-03-27T12:25:13.322Z,22.41
2017-03-27T12:26:17.940Z,22.87
2017-03-27T12:27:23.279Z,23.01
2017-03-27T12:29:55.281Z,22.03
2017-03-27T12:30:59.306Z,24.13
2017-03-27T12:32:03.940Z,23.21
2017-03-27T12:33:09.099Z,23.82
2017-03-27T12:34:13.640Z,23.17
2017-03-27T12:35:17.944Z,23.74
2017-03-27T12:36:23.352Z,22.27
2017-03-27T12:37:29.176Z,22.72
2017-03-27T12:38:34.446Z,23.78
2017-03-27T12:39:39.817Z,23.77
2017-03-27T12:40:44.544Z,22.95
2017-03-27T12:41:48.587Z,22.42
2017-03-27T12:42:53.276Z,23.21
2017-03-27T12:43:57.899Z,23.11
2017-03-27T12:45:02.496Z,23.43
2017-03-27T12:46:07.553Z,23.69
2017-03-27T12:47:13.740Z,22.79
2017-03-27T12:48:17.759Z,23.61
2017-03-27T12:49:22.208Z,22.86
2017-03-27T12:50:26.848Z,22.55
2017-03-27T12:51:31.321Z,22.36
2017-03-27T12:52:40.813Z,21.35
2017-03-27T12:53:45.886Z,21.48
2017-03-27T12:54:55.685Z,21.06
2017-03-27T12:56:00.780Z,21.32
2017-03-27T12:57:05.439Z,22.40
2017-03-27T12:58:09.893Z,22.31
2017-03-27T12:59:14.184Z,22.17
2017-03-27T13:01:40.901Z,22.16
2017-03-27T13:02:45.672Z,22.36
2017-03-27T13:03:49.817Z,21.30
2017-03-27T13:04:54.326Z,21.38
2017-03-27T13:05:58.838Z,22.31
2017-03-27T13:07:03.276Z,21.76
2017-03-27T13:08:07.944Z,22.48
2017-03-27T13:09:12.337Z,22.12
2017-03-27T13:10:17.036Z,20.80
2017-03-27T13:11:21.607Z,22.12
2017-03-27T13:12:26.271Z,22.02
2017-03-27T13:13:30.402Z,20.27
2017-03-27T13:14:34.927Z,21.08
2017-03-27T13:15:39.566Z,21.88
2017-03-27T13:16:44.788Z,20.66
2017-03-27T13:17:49.089Z,21.85
2017-03-27T13:18:53.050Z,20.87
2017-03-27T13:19:58.234Z,22.05
2017-03-27T13:21:04.049Z,20.65
2017-03-27T13:22:09.348Z,21.08
2017-03-27T13:23:14.972Z,20.59
2017-03-27T13:24:19.619Z,20.41
2017-03-27T13:25:25.271Z,20.42
2017-03-27T13:26:29.901Z,20.55
2017-03-27T13:27:34.577Z,19.70
2017-03-27T13:28:39.572Z,20.60
2017-03-27T13:29:43.956Z,20.72
2017-03-27T13:30:50.316Z,20.39
2017-03-27T13:31:54.768Z,20.58
2017-03-27T13:32:59.275Z,19.75
2017-03-27T13:34:02.842Z,19.91
2017-03-27T13:35:07.095Z,20.78
2017-03-27T13:36:11.303Z,19.74
2017-03-27T13:37:16.160Z,20.11
2017-03-27T13:38:20.154Z,19.71
2017-03-27T13:39:24.817Z,21.19
2017-03-27T13:40:45.445Z,21.08
2017-03-27T13:41:50.387Z,20.20
2017-03-27T13:43:00.250Z,20.50
2017-03-27T13:44:05.113Z,19.57
2017-03-27T13:45:14.038Z,19.77
2017-03-27T13:46:18.600Z,20.67
2017-03-27T13:47:24.414Z,18.68
2017-03-27T13:48:28.619Z,20.44
2017-03-27T13:49:33.675Z,20.74
2017-03-27T13:50:39.661Z,20.45
2017-03-27T13:51:45.150Z,20.64
2017-03-27T13:52:50.081Z,19.97
2017-03-27T13:53:55.515Z,21.49
2017-03-27T13:55:00.391Z,20.29
2017-03-27T13:56:04.930Z,21.07